createdAt,value
2022-12-26T06:49:23.166Z,1.90
2022-12-26T07:16:33.286Z,2.28
2022-12-26T07:19:00.181Z,2.30
2022-12-26T08:23:30.658Z,2.00
2022-12-26T08:25:57.700Z,2.40
2022-12-26T08:31:17.469Z,2.40
2022-12-26T08:42:40.078Z,2.30
2022-12-26T08:54:32.323Z,1.98
2022-12-26T08:56:58.851Z,2.08
2022-12-26T08:59:25.582Z,2.10
2022-12-26T09:01:52.109Z,1.88
2022-12-26T09:04:18.668Z,1.75
2022-12-26T09:06:45.119Z,2.00
2022-12-26T09:09:12.560Z,1.60
2022-12-26T09:11:39.951Z,1.80
2022-12-26T09:14:06.696Z,1.60
2022-12-26T09:16:49.632Z,1.60
2022-12-26T09:19:17.861Z,1.70
2022-12-26T09:21:45.393Z,1.70
2022-12-26T09:24:14.677Z,1.80
2022-12-26T09:26:41.643Z,1.60
2022-12-26T09:29:09.220Z,1.70
2022-12-26T09:31:35.725Z,1.75
2022-12-26T09:34:04.585Z,2.05
2022-12-26T09:36:33.864Z,1.52
2022-12-26T09:39:01.096Z,1.65
2022-12-26T09:41:36.073Z,2.10
2022-12-26T09:44:15.865Z,1.73
2022-12-26T09:47:16.358Z,1.90
2022-12-26T09:49:47.707Z,1.40
2022-12-26T09:52:22.709Z,1.60
2022-12-26T09:54:54.757Z,1.63
2022-12-26T09:57:34.386Z,1.38
2022-12-26T10:00:05.033Z,1.45
2022-12-26T10:02:39.816Z,1.30
2022-12-26T10:05:06.728Z,1.30
2022-12-26T10:07:41.163Z,1.60
2022-12-26T10:10:30.889Z,1.70
2022-12-26T10:13:13.562Z,1.40
2022-12-26T10:15:45.201Z,1.30
2022-12-26T10:18:21.684Z,1.70
2022-12-26T10:21:03.128Z,1.50
2022-12-26T10:23:33.834Z,1.40
2022-12-26T10:26:05.921Z,1.40
2022-12-26T10:28:36.154Z,1.35
2022-12-26T10:31:15.733Z,1.30
2022-12-26T10:33:48.997Z,1.45
2022-12-26T10:36:27.309Z,1.67
2022-12-26T10:38:55.227Z,1.50
2022-12-26T10:41:28.190Z,1.23
2022-12-26T10:43:54.861Z,1.58
2022-12-26T10:46:24.013Z,1.88
2022-12-26T10:48:50.665Z,1.42
2022-12-26T10:51:17.356Z,1.67
2022-12-26T10:53:48.879Z,1.67
2022-12-26T10:56:18.253Z,1.65
2022-12-26T10:58:45.734Z,1.45
2022-12-26T11:01:37.818Z,1.40
2022-12-26T11:04:44.423Z,1.58
2022-12-26T11:07:11.501Z,1.67
2022-12-26T11:09:43.809Z,1.50
2022-12-26T11:12:39.607Z,1.67
2022-12-26T11:15:19.096Z,1.25
2022-12-26T11:17:47.840Z,1.70
2022-12-26T11:20:14.165Z,1.80
2022-12-26T11:22:43.012Z,1.60
2022-12-26T11:25:09.339Z,1.35
2022-12-26T11:27:43.022Z,1.40
2022-12-26T11:30:28.158Z,1.92
2022-12-26T11:33:14.080Z,1.08
2022-12-26T11:35:53.577Z,1.60
2022-12-26T11:38:44.079Z,1.05
2022-12-26T11:41:33.623Z,1.25
2022-12-26T11:44:09.008Z,1.30
2022-12-26T11:46:54.862Z,1.40
2022-12-26T11:49:34.861Z,1.60
2022-12-26T11:52:33.833Z,1.60
2022-12-26T11:55:00.451Z,1.10
2022-12-26T11:57:32.435Z,1.38
2022-12-26T12:00:17.806Z,1.35
2022-12-26T12:02:44.357Z,1.30
2022-12-26T12:05:19.219Z,1.40
2022-12-26T12:08:36.761Z,1.70
2022-12-26T12:11:25.588Z,1.17
2022-12-26T12:13:58.589Z,1.17
2022-12-26T12:16:49.655Z,1.40
2022-12-26T12:19:38.225Z,1.45
2022-12-26T12:22:25.739Z,1.50
2022-12-26T12:24:56.576Z,1.38
2022-12-26T12:27:36.395Z,1.30
2022-12-26T12:30:10.759Z,1.38
2022-12-26T12:33:13.132Z,1.42
2022-12-26T12:35:53.185Z,1.40
2022-12-26T12:38:33.063Z,1.85
2022-12-26T12:41:18.151Z,1.48
2022-12-26T12:44:09.117Z,1.40
2022-12-26T12:46:51.401Z,1.48
2022-12-26T12:49:44.348Z,1.50
2022-12-26T12:52:32.720Z,1.30
2022-12-26T12:55:10.746Z,1.20
2022-12-26T12:57:43.575Z,1.30
2022-12-26T13:00:24.193Z,1.48
2022-12-26T13:03:10.396Z,1.50
2022-12-26T13:06:04.615Z,1.30
2022-12-26T13:08:45.431Z,1.20
2022-12-26T13:11:20.968Z,1.25
2022-12-26T13:13:53.772Z,1.33
2022-12-26T13:16:25.240Z,1.20
2022-12-26T13:18:55.586Z,1.20
2022-12-26T13:21:22.624Z,1.33
2022-12-26T13:24:18.907Z,1.60
2022-12-26T13:26:49.978Z,1.10
2022-12-26T13:29:23.889Z,1.30
2022-12-26T13:31:52.351Z,1.77
2022-12-26T13:34:21.476Z,1.20
2022-12-26T13:36:49.880Z,1.50
2022-12-26T13:39:23.575Z,1.10
2022-12-26T13:42:26.953Z,1.52
2022-12-26T13:44:53.950Z,1.40
2022-12-26T13:47:36.772Z,1.30
2022-12-26T13:50:41.155Z,1.33
2022-12-26T13:53:26.940Z,1.08
2022-12-26T13:56:12.664Z,1.55
2022-12-26T13:58:50.360Z,1.08
2022-12-26T14:01:27.184Z,1.20
2022-12-26T14:03:56.794Z,1.48
2022-12-26T14:06:55.554Z,1.23
2022-12-26T14:09:35.859Z,1.33
2022-12-26T14:12:11.327Z,1.45
2022-12-26T14:14:56.432Z,1.65
2022-12-26T14:17:48.878Z,1.10
2022-12-26T14:20:39.759Z,1.20
2022-12-26T14:23:15.629Z,1.10
2022-12-26T14:25:50.563Z,1.00
2022-12-26T14:28:38.122Z,1.00
2022-12-26T14:31:23.435Z,1.30
2022-12-26T14:34:27.105Z,1.20
2022-12-26T14:37:09.965Z,1.20
2022-12-26T14:40:18.246Z,1.27
2022-12-26T14:43:12.462Z,1.27
2022-12-26T14:45:53.211Z,1.60
2022-12-26T14:48:19.665Z,1.10
2022-12-26T14:51:13.780Z,1.77
2022-12-26T14:53:40.460Z,1.55
2022-12-26T14:56:10.209Z,1.30
2022-12-26T14:58:53.239Z,1.20
2022-12-26T15:01:22.860Z,1.35
2022-12-26T15:04:14.855Z,1.35
2022-12-26T15:06:56.470Z,1.30
2022-12-26T15:09:42.012Z,1.30
2022-12-26T15:12:39.309Z,1.27
2022-12-26T15:15:28.064Z,1.40
2022-12-26T15:18:37.735Z,1.17
2022-12-26T15:21:21.375Z,1.02
2022-12-26T15:25:17.711Z,0.95
2022-12-26T15:27:39.933Z,1.02
2022-12-26T15:30:51.908Z,1.33
2022-12-26T15:33:40.329Z,1.15
2022-12-26T15:36:42.224Z,1.02
2022-12-26T15:39:30.278Z,0.80
2022-12-26T15:42:11.908Z,0.82
2022-12-26T15:44:42.819Z,1.10
2022-12-26T15:47:37.483Z,1.00
2022-12-26T15:50:07.900Z,0.88
2022-12-26T15:52:37.278Z,1.08
2022-12-26T15:57:59.153Z,1.15
2022-12-26T16:00:50.141Z,1.00
2022-12-26T16:03:29.329Z,1.20
2022-12-26T16:08:59.129Z,1.02
2022-12-26T16:11:30.352Z,0.75
2022-12-26T16:14:00.140Z,1.27
2022-12-26T16:16:30.783Z,1.15
2022-12-26T16:18:57.492Z,1.05
2022-12-26T16:21:47.625Z,1.27
2022-12-26T16:24:16.554Z,1.13
2022-12-26T16:26:44.226Z,1.10
2022-12-26T16:29:16.109Z,1.45
2022-12-26T16:31:42.715Z,1.40
2022-12-26T16:34:16.585Z,1.20
2022-12-26T16:36:43.736Z,1.20
2022-12-26T16:39:11.189Z,1.40
2022-12-26T16:41:57.281Z,1.20
2022-12-26T16:44:32.061Z,1.40
2022-12-26T16:47:07.512Z,1.58
2022-12-26T16:49:34.377Z,1.30
2022-12-26T16:52:00.912Z,1.58
2022-12-26T16:54:39.430Z,1.38
2022-12-26T16:57:19.168Z,0.95
2022-12-26T16:59:58.156Z,0.73
2022-12-26T17:02:27.447Z,0.80
2022-12-26T17:07:25.516Z,0.40
2022-12-26T17:09:56.104Z,0.45
2022-12-26T17:12:33.270Z,0.57
2022-12-26T17:15:00.210Z,2.38
2022-12-26T17:17:32.711Z,0.75
2022-12-26T17:20:21.591Z,0.70
2022-12-26T17:22:49.644Z,0.90
2022-12-26T17:25:29.343Z,0.77
2022-12-26T17:28:08.003Z,0.60
2022-12-26T17:30:39.656Z,0.70
2022-12-26T17:33:12.851Z,0.55
2022-12-26T17:36:32.908Z,0.80
2022-12-26T17:38:27.454Z,0.65
2022-12-26T17:40:55.964Z,0.57
2022-12-26T17:43:34.225Z,0.60
2022-12-26T17:46:01.607Z,0.50
2022-12-26T17:48:28.618Z,0.70
2022-12-26T17:50:57.735Z,0.70
2022-12-26T17:53:45.729Z,0.52
2022-12-26T17:56:21.035Z,0.55
2022-12-26T17:58:48.615Z,0.40
2022-12-26T18:01:20.653Z,0.40
2022-12-26T18:03:48.108Z,0.40
2022-12-26T18:06:16.449Z,0.32
2022-12-26T18:08:44.331Z,0.60
2022-12-26T18:11:12.428Z,0.50
2022-12-26T18:13:39.064Z,0.40
2022-12-26T18:16:06.108Z,0.50
2022-12-26T18:18:36.247Z,0.40
2022-12-26T18:21:04.043Z,0.47
2022-12-26T18:23:30.458Z,0.52
2022-12-26T18:25:59.745Z,0.55
2022-12-26T18:30:52.593Z,0.30
2022-12-26T18:33:19.162Z,0.57
2022-12-26T18:35:45.635Z,0.52
2022-12-26T18:38:16.349Z,0.43
2022-12-26T18:40:48.915Z,0.40
2022-12-26T18:43:15.370Z,0.40
2022-12-26T18:45:42.127Z,0.55
2022-12-26T18:48:13.312Z,0.70
2022-12-26T18:50:39.820Z,0.63
2022-12-26T18:53:06.285Z,0.60
2022-12-26T18:55:32.748Z,0.40
2022-12-26T18:57:59.163Z,0.45
2022-12-26T19:00:26.036Z,0.43
2022-12-26T19:02:52.685Z,0.60
2022-12-26T19:05:23.784Z,0.80
2022-12-26T19:07:50.447Z,0.90
2022-12-26T19:10:19.088Z,0.80
2022-12-26T19:12:45.951Z,0.60
2022-12-26T19:15:13.551Z,0.55
2022-12-26T19:17:41.090Z,0.73
2022-12-26T19:20:09.702Z,1.83
2022-12-26T19:22:36.438Z,0.93
2022-12-26T19:25:02.924Z,1.35
2022-12-26T19:27:29.685Z,1.52
2022-12-26T19:29:56.121Z,1.10
2022-12-26T19:32:22.540Z,0.80
2022-12-26T19:34:49.026Z,0.82
2022-12-26T19:37:15.512Z,0.80
2022-12-26T19:39:41.925Z,0.70
2022-12-26T19:42:08.337Z,0.85
2022-12-26T19:44:34.873Z,0.80
2022-12-26T19:47:12.728Z,1.15
2022-12-26T19:49:40.491Z,0.85
2022-12-26T19:52:07.004Z,0.95
2022-12-26T19:54:33.466Z,1.30
2022-12-26T19:56:59.878Z,1.77
2022-12-26T19:59:26.357Z,1.05
2022-12-26T20:01:52.973Z,1.83
2022-12-26T20:04:19.525Z,1.30
2022-12-26T20:06:45.992Z,1.80
2022-12-26T20:09:13.831Z,1.70
2022-12-26T20:11:49.211Z,1.30
2022-12-26T20:14:18.060Z,1.33
2022-12-26T20:19:31.384Z,1.15
2022-12-26T20:21:57.863Z,1.23
2022-12-26T20:24:26.275Z,1.93
2022-12-26T20:26:52.796Z,2.35
2022-12-26T20:29:19.258Z,0.80
2022-12-26T20:31:45.742Z,0.77
2022-12-26T20:34:12.799Z,0.75
2022-12-26T20:36:40.043Z,0.63
2022-12-26T20:39:10.664Z,0.60
2022-12-26T20:41:37.170Z,0.70
2022-12-26T20:44:03.646Z,0.68
2022-12-26T20:46:32.072Z,0.98
2022-12-26T20:48:59.251Z,0.83
2022-12-26T20:51:31.739Z,0.70
2022-12-26T20:54:03.134Z,0.70
2022-12-26T20:56:29.520Z,0.73
2022-12-26T20:58:59.076Z,0.75
2022-12-26T21:01:25.951Z,0.90
2022-12-26T21:03:53.966Z,0.70
2022-12-26T21:06:23.163Z,0.75
2022-12-26T21:08:51.308Z,1.55
2022-12-26T21:11:23.560Z,0.90
2022-12-26T21:13:51.364Z,0.70
2022-12-26T21:16:26.992Z,0.82
2022-12-26T21:18:53.622Z,1.15
2022-12-26T21:21:23.472Z,0.65
2022-12-26T21:23:54.508Z,1.40
2022-12-26T21:26:20.958Z,1.00
2022-12-26T21:28:47.613Z,1.35
2022-12-26T21:31:14.014Z,1.20
2022-12-26T21:33:44.535Z,1.13
2022-12-26T21:36:12.988Z,1.05
2022-12-26T21:38:39.811Z,1.10
2022-12-26T21:41:11.409Z,1.00
2022-12-26T21:43:37.968Z,1.33
2022-12-26T21:46:11.296Z,1.00
2022-12-26T21:48:37.774Z,1.40
2022-12-26T21:51:08.475Z,1.02
2022-12-26T21:53:35.566Z,1.20
2022-12-26T21:56:06.232Z,1.20
2022-12-26T21:58:52.666Z,1.17
2022-12-26T22:01:20.658Z,1.20
2022-12-26T22:04:05.897Z,1.45
2022-12-26T22:06:32.377Z,1.10
2022-12-26T22:08:59.531Z,1.35
2022-12-26T22:11:44.607Z,0.90
2022-12-26T22:14:11.119Z,1.23
2022-12-26T22:16:37.788Z,1.02
2022-12-26T22:19:04.824Z,0.95
2022-12-26T22:21:31.325Z,1.10
2022-12-26T22:23:59.537Z,1.17
2022-12-26T22:26:27.710Z,1.30
2022-12-26T22:28:55.124Z,1.30
2022-12-26T22:31:31.525Z,1.30
2022-12-26T22:34:00.988Z,1.10
2022-12-26T22:38:54.425Z,1.20
2022-12-26T22:41:21.125Z,1.10
2022-12-26T22:43:47.499Z,1.10
2022-12-26T22:46:14.184Z,1.10
2022-12-26T22:48:41.636Z,1.02
2022-12-26T22:51:08.289Z,1.30
2022-12-26T22:53:34.903Z,1.23
2022-12-26T22:56:04.905Z,1.10
2022-12-26T22:58:32.140Z,1.92
2022-12-26T23:00:59.084Z,1.20
2022-12-26T23:03:26.704Z,1.33
2022-12-26T23:05:53.849Z,1.77
2022-12-26T23:08:23.813Z,1.80
2022-12-26T23:10:53.407Z,1.60
2022-12-26T23:13:20.102Z,1.42
2022-12-26T23:16:02.510Z,1.75
2022-12-26T23:19:01.544Z,1.67
2022-12-26T23:21:40.351Z,1.70
2022-12-26T23:24:09.194Z,1.50
2022-12-26T23:26:35.869Z,1.40
2022-12-26T23:29:20.952Z,1.42
2022-12-26T23:31:47.407Z,1.67
2022-12-26T23:34:14.305Z,1.42
2022-12-26T23:36:40.778Z,1.48
2022-12-26T23:39:07.425Z,1.50
2022-12-26T23:41:33.953Z,1.52
2022-12-26T23:44:00.786Z,1.63
2022-12-26T23:46:27.241Z,1.90
2022-12-26T23:48:53.657Z,1.52
2022-12-26T23:51:20.168Z,1.70
2022-12-26T23:53:46.647Z,2.10
2022-12-26T23:56:13.475Z,1.48
2022-12-26T23:58:40.159Z,1.30
